Briercrest, Canada
Current Conditions -  °F | °C
As of 7:00 PM on Monday 24 Nov 2014 (Local Time) from CYQR Reporting Station
Overcast Overcast  
Wind Chill:   Ceiling: 1000
Heat Index: 19°   Visibility: 12mi
Dew Point: 18°   Wind: 10mph
Humidity: 93%   Direction: 330°NNW
Pressure: 29.96"   Gusts: NA
Location:  50.17°N, 105.27°W
Report Text: CYQR 250100Z 33009KT 12SM BKN010 OVC018 M07/M08 A2996 RMK SC6SC2 SLP187
Loading
Personal Weather Stations






























Interactive Weather Map New forecast layout! Learn more

10-Day Weather Forecast

Advertisements
Track Severe Weather on mobile